Corsicana, TX (75110)

08:28 AM CST em 14 de Fevereiro de 2016 (GMT -0600)
Bowie - Collins School area | | Change Station
CLOSE
Current Station
Estação Meteorológica Particular
Location: Corsicana, TX
Altitude: 433 ft
Estações Meteorológicas Próximas

Elev 433 ft 32.11 °N, 96.49 °W | Updated 2 seconds ago

Overcast
Céu Encoberto
60.6 °F
Aparente 60.6 °F
N
8.3
Vento Variável Vento de SE
Gusts 9.8 mph

Hoje
Máxima -- | Mínima -- °F
--% Possibilidade de Precip.
Ontem
Máxima -- | Mínima -- °F
Precip. -- pol
Pressão 30.01 pol
Visibilidade 10.0 milhas
Nuvens Muito Nublado 1700 ft
Céu Encoberto 2300 ft
Ponto de Orvalho 55 °F
Humidade 83%
Chuva 0.00 pol
Altura de Neve Não disponível
7:09 AM 6:10 PM
Quarto crescente, 42% visible
METAR KCRS 141353Z AUTO 19014KT 10SM BKN017 OVC023 16/12 A3002 RMK AO2 SLP162 T01560122
Pressão 30.01 pol
Visibilidade 10.0 milhas
Nuvens Muito Nublado 1700 ft
Céu Encoberto 2300 ft
Ponto de Orvalho 55 °F
Humidade 83%
Chuva 0.00 pol
Altura de Neve Não disponível
7:09 AM 6:10 PM
Quarto crescente, 42% visible
METAR KCRS 141353Z AUTO 19014KT 10SM BKN017 OVC023 16/12 A3002 RMK AO2 SLP162 T01560122

10-Day Weather Forecast

Almanac

Astronomia

Feb. 14, 2016 Nascer Pôr
Hora atual
Crepúsculo civil
Crepúsculo náutico
Crepúsculo astronómico
Lua
Comprimento da luz visível
Duração do Dia
Tomorrow will be .
, % of the Moon is Illuminated

Extremos de Hoje

situação na parte mais alta situação na parte mais baixa

Community

WunderPhotos

Upload Photos

1,892,800 fotografias inseridas!

WunderBlog® & News

Nearby

Qualidade do Ar

  Qualidade do Ar Índice da Q.A. Poluente
Not available.

Altura da Neve

Estação altura Altitude

Actividade Sísmisca

Cidade Distância Mag. Hora & Data
Mínima magnitude apresentada é 2.5.

Temperaturas das Águas Costeiras

Local Temperatura

Stations

Estações Meteorológicas Próximas

Localização da Estação Temp. Sensação Térmica Ponto de Orvalho Humidade Vento Precip. Elev Actualizado Tipo
                   

Watches & Warnings

There are currently no watches in effect.